createdAt,value
2022-11-15T00:00:02.268Z,87.7
2022-11-15T00:15:02.777Z,87.8
2022-11-15T00:30:02.103Z,87.8
2022-11-15T01:00:03.001Z,87.8
2022-11-15T01:15:02.414Z,87.8
2022-11-15T01:30:02.852Z,87.8
2022-11-15T01:45:02.269Z,87.8
2022-11-15T02:00:02.808Z,87.8
2022-11-15T02:15:03.159Z,87.8
2022-11-15T02:30:02.815Z,88.0
2022-11-15T02:45:03.052Z,88.0
2022-11-15T03:00:02.473Z,88.0
2022-11-15T03:15:02.934Z,88.1
2022-11-15T03:30:02.341Z,88.3
2022-11-15T03:45:02.822Z,88.3
2022-11-15T04:00:03.254Z,88.4
2022-11-15T04:15:02.835Z,88.2
2022-11-15T04:30:02.087Z,88.4
2022-11-15T04:45:02.563Z,88.3
2022-11-15T05:00:03.007Z,88.3
2022-11-15T05:15:02.446Z,88.1
2022-11-15T05:30:02.877Z,88.1
2022-11-15T05:45:02.309Z,87.9
2022-11-15T06:00:02.857Z,88.1
2022-11-15T06:15:02.165Z,88.6
2022-11-15T06:30:02.601Z,88.7
2022-11-15T06:45:03.056Z,88.9
2022-11-15T07:00:02.479Z,88.7
2022-11-15T07:15:02.932Z,88.8
2022-11-15T07:30:02.369Z,89.1
2022-11-15T07:45:02.873Z,89.3
2022-11-15T08:00:02.263Z,89.8
2022-11-15T08:15:02.880Z,89.6
2022-11-15T08:30:02.128Z,89.3
2022-11-15T08:45:02.535Z,89.1
2022-11-15T09:00:03.007Z,89.0
2022-11-15T09:15:02.420Z,88.4
2022-11-15T09:30:02.895Z,87.2
2022-11-15T09:45:02.376Z,85.8
2022-11-15T10:00:23.877Z,83.8
2022-11-15T10:30:02.840Z,78.2
2022-11-15T10:45:03.104Z,74.1
2022-11-15T11:00:02.539Z,71.9
2022-11-15T11:15:02.971Z,69.6
2022-11-15T11:30:02.398Z,66.0
2022-11-15T11:45:02.922Z,64.2
2022-11-15T12:00:02.276Z,63.6
2022-11-15T12:15:02.912Z,57.7
2022-11-15T12:30:02.121Z,55.5
2022-11-15T12:45:02.570Z,52.8
2022-11-15T13:00:03.011Z,55.7
2022-11-15T13:15:02.439Z,57.3
2022-11-15T13:30:02.935Z,59.6
2022-11-15T13:45:02.317Z,61.3
2022-11-15T14:00:02.959Z,62.0
2022-11-15T14:15:02.229Z,62.4
2022-11-15T14:30:02.603Z,64.1
2022-11-15T14:45:03.049Z,64.7
2022-11-15T15:00:02.492Z,65.5
2022-11-15T15:15:02.960Z,65.7
2022-11-15T15:30:02.373Z,67.9
2022-11-15T15:45:02.968Z,69.4
2022-11-15T16:00:02.237Z,69.0
2022-11-15T16:15:02.721Z,71.2
2022-11-15T16:30:03.153Z,72.2
2022-11-15T16:45:02.550Z,72.1
2022-11-15T17:00:03.032Z,72.6
2022-11-15T17:15:02.475Z,72.5
2022-11-15T17:30:03.003Z,73.8
2022-11-15T17:45:08.054Z,74.6
2022-11-15T18:00:02.740Z,75.8
2022-11-15T18:15:03.199Z,77.8
2022-11-15T18:30:02.635Z,79.6
2022-11-15T18:45:03.098Z,83.1
2022-11-15T19:00:02.504Z,83.7
2022-11-15T19:15:07.502Z,84.6
2022-11-15T19:30:02.402Z,84.7
2022-11-15T19:45:03.025Z,84.8
2022-11-15T20:00:06.951Z,84.5
2022-11-15T20:15:02.720Z,84.5
2022-11-15T20:30:03.144Z,84.1
2022-11-15T20:45:02.579Z,84.8
2022-11-15T21:00:05.793Z,85.6
2022-11-15T21:15:02.435Z,86.0
2022-11-15T21:30:03.042Z,85.8
2022-11-15T21:45:02.330Z,85.3
2022-11-15T22:00:02.792Z,85.0
2022-11-15T22:15:03.198Z,85.0
2022-11-15T22:30:02.622Z,85.2
2022-11-15T22:45:03.099Z,85.3
2022-11-15T23:00:02.517Z,85.8
2022-11-15T23:15:02.049Z,86.4
2022-11-15T23:30:02.415Z,86.6
2022-11-15T23:45:03.014Z,86.4
